createdAt,value
2019-04-29T00:00:17.261Z,12.23
2019-04-29T00:02:43.622Z,13.57
2019-04-29T00:05:10.557Z,13.40
2019-04-29T00:07:38.160Z,13.80
2019-04-29T00:10:07.256Z,13.80
2019-04-29T00:12:33.985Z,12.93
2019-04-29T00:15:07.873Z,11.85
2019-04-29T00:17:36.336Z,10.65
2019-04-29T00:20:09.884Z,9.50
2019-04-29T00:22:36.329Z,12.07
2019-04-29T00:25:03.541Z,10.50
2019-04-29T00:27:30.001Z,13.48
2019-04-29T00:29:56.228Z,11.83
2019-04-29T00:32:22.918Z,14.07
2019-04-29T00:34:49.472Z,13.90
2019-04-29T00:37:34.345Z,12.43
2019-04-29T00:40:08.226Z,12.82
2019-04-29T00:42:36.832Z,11.75
2019-04-29T00:45:05.777Z,10.03
2019-04-29T00:47:51.949Z,10.88
2019-04-29T00:50:18.466Z,10.38
2019-04-29T00:52:44.738Z,15.95
2019-04-29T00:55:16.539Z,13.95
2019-04-29T00:57:42.905Z,20.55
2019-04-29T01:00:13.367Z,13.62
2019-04-29T01:02:39.975Z,15.25
2019-04-29T01:05:06.417Z,13.60
2019-04-29T01:07:32.814Z,13.43
2019-04-29T01:09:59.381Z,13.88
2019-04-29T01:12:26.101Z,17.95
2019-04-29T01:14:52.703Z,13.88
2019-04-29T01:17:19.038Z,13.35
2019-04-29T01:19:45.505Z,14.73
2019-04-29T01:22:11.764Z,12.82
2019-04-29T01:24:38.394Z,20.23
2019-04-29T01:27:06.935Z,12.45
2019-04-29T01:29:34.185Z,11.25
2019-04-29T01:32:00.781Z,12.03
2019-04-29T01:34:35.478Z,11.83
2019-04-29T01:37:01.836Z,13.45
2019-04-29T01:39:30.436Z,12.10
2019-04-29T01:41:58.617Z,12.50
2019-04-29T01:44:26.931Z,13.05
2019-04-29T01:46:54.505Z,18.73
2019-04-29T01:49:21.176Z,14.38
2019-04-29T01:51:47.780Z,13.43
2019-04-29T01:54:14.440Z,11.73
2019-04-29T01:56:41.058Z,15.85
2019-04-29T01:59:07.716Z,14.90
2019-04-29T02:01:34.337Z,16.48
2019-04-29T02:04:00.592Z,15.48
2019-04-29T02:06:27.304Z,15.75
2019-04-29T02:08:55.174Z,17.85
2019-04-29T02:11:21.709Z,15.00
2019-04-29T02:13:48.368Z,15.32
2019-04-29T02:16:15.090Z,13.80
2019-04-29T02:18:41.657Z,13.68
2019-04-29T02:21:08.262Z,26.55
2019-04-29T02:23:36.832Z,14.75
2019-04-29T02:26:03.192Z,12.03
2019-04-29T02:28:29.845Z,14.55
2019-04-29T02:30:56.659Z,14.75
2019-04-29T02:33:23.133Z,11.60
2019-04-29T02:35:49.757Z,12.05
2019-04-29T02:38:30.259Z,14.90
2019-04-29T02:41:04.406Z,19.17
2019-04-29T02:43:32.891Z,13.98
2019-04-29T02:45:59.222Z,11.57
2019-04-29T02:48:29.998Z,15.48
2019-04-29T02:50:53.758Z,11.97
2019-04-29T02:53:20.369Z,11.03
2019-04-29T02:55:48.534Z,11.48
2019-04-29T02:58:34.659Z,12.50
2019-04-29T03:01:19.928Z,9.88
2019-04-29T03:03:50.798Z,13.15
2019-04-29T03:06:17.450Z,10.45
2019-04-29T03:08:44.129Z,10.72
2019-04-29T03:11:11.524Z,12.18
2019-04-29T03:13:38.229Z,11.70
2019-04-29T03:16:04.803Z,9.58
2019-04-29T03:18:32.931Z,9.88
2019-04-29T03:21:03.826Z,10.48
2019-04-29T03:23:30.519Z,11.60
2019-04-29T03:25:57.196Z,11.12
2019-04-29T03:28:23.691Z,9.45
2019-04-29T03:30:50.331Z,9.73
2019-04-29T03:33:16.696Z,9.33
2019-04-29T03:35:43.298Z,10.50
2019-04-29T03:38:09.863Z,12.00
2019-04-29T03:40:36.477Z,8.88
2019-04-29T03:43:03.349Z,10.85
2019-04-29T03:45:29.762Z,17.15
2019-04-29T03:47:56.414Z,11.48
2019-04-29T03:50:23.029Z,17.52
2019-04-29T03:52:50.558Z,15.90
2019-04-29T03:55:17.188Z,16.35
2019-04-29T03:57:43.766Z,14.63
2019-04-29T04:00:12.533Z,14.20
2019-04-29T04:02:43.886Z,14.47
2019-04-29T04:08:21.129Z,13.00
2019-04-29T04:10:48.205Z,17.10
2019-04-29T04:13:14.908Z,14.68
2019-04-29T04:15:41.642Z,15.93
2019-04-29T04:18:15.605Z,11.70
2019-04-29T04:20:42.181Z,10.55
2019-04-29T04:23:08.750Z,13.72
2019-04-29T04:25:35.558Z,12.95
2019-04-29T04:28:02.225Z,9.90
2019-04-29T04:30:28.639Z,9.15
2019-04-29T04:32:55.317Z,11.73
2019-04-29T04:35:21.692Z,7.95
2019-04-29T04:37:48.182Z,8.70
2019-04-29T04:40:22.919Z,10.43
2019-04-29T04:42:49.237Z,9.68
2019-04-29T04:45:16.380Z,8.88
2019-04-29T04:47:42.934Z,11.85
2019-04-29T04:50:10.121Z,8.73
2019-04-29T04:52:36.610Z,26.42
2019-04-29T04:55:05.945Z,9.55
2019-04-29T04:57:32.328Z,10.18
2019-04-29T04:59:58.982Z,10.15
2019-04-29T05:02:26.513Z,9.30
2019-04-29T05:04:53.036Z,9.98
2019-04-29T05:07:19.298Z,12.95
2019-04-29T05:09:45.507Z,34.58
2019-04-29T05:12:14.115Z,26.02
2019-04-29T05:14:39.772Z,26.87
2019-04-29T05:17:05.997Z,48.60
2019-04-29T05:19:32.241Z,30.25
2019-04-29T05:21:58.484Z,23.62
2019-04-29T05:24:24.761Z,10.10
2019-04-29T05:26:51.157Z,22.65
2019-04-29T05:29:17.917Z,29.60
2019-04-29T05:31:44.453Z,33.15
2019-04-29T05:34:11.621Z,52.45
2019-04-29T05:36:40.015Z,47.88
2019-04-29T05:39:08.901Z,37.70
2019-04-29T05:41:36.394Z,88.87
2019-04-29T05:44:04.982Z,171.13
2019-04-29T05:46:33.129Z,73.25
2019-04-29T05:49:02.331Z,70.12
2019-04-29T05:51:29.687Z,60.33
2019-04-29T05:53:57.905Z,81.37
2019-04-29T05:56:24.328Z,136.20
2019-04-29T05:58:50.937Z,91.92
2019-04-29T06:01:19.044Z,23.60
2019-04-29T06:03:45.292Z,53.87
2019-04-29T06:06:12.382Z,33.90
2019-04-29T06:08:39.486Z,39.15
2019-04-29T06:11:06.920Z,81.15
2019-04-29T06:13:33.142Z,55.52
2019-04-29T06:15:59.377Z,38.42
2019-04-29T06:18:25.632Z,26.52
2019-04-29T06:20:51.765Z,14.75
2019-04-29T06:23:19.025Z,79.07
2019-04-29T06:25:46.049Z,15.08
2019-04-29T06:28:12.301Z,22.22
2019-04-29T06:30:40.596Z,25.30
2019-04-29T06:33:06.696Z,37.28
2019-04-29T06:35:32.964Z,21.45
2019-04-29T06:37:59.218Z,11.35
2019-04-29T06:40:25.440Z,26.62
2019-04-29T06:42:53.467Z,13.22
2019-04-29T06:45:19.804Z,17.12
2019-04-29T06:47:46.150Z,11.73
2019-04-29T06:50:13.477Z,9.10
2019-04-29T06:52:39.724Z,10.88
2019-04-29T06:55:06.154Z,8.60
2019-04-29T06:57:33.616Z,10.32
2019-04-29T06:59:59.770Z,8.38
2019-04-29T07:02:25.989Z,10.50
2019-04-29T07:04:52.364Z,10.38
2019-04-29T07:07:18.584Z,9.90
2019-04-29T07:09:44.841Z,9.23
2019-04-29T07:12:12.459Z,13.70
2019-04-29T07:14:39.094Z,8.03
2019-04-29T07:17:05.925Z,8.15
2019-04-29T07:19:33.407Z,9.60
2019-04-29T07:21:59.652Z,7.97
2019-04-29T07:24:25.972Z,8.93
2019-04-29T07:26:52.218Z,12.00
2019-04-29T07:29:18.887Z,9.70
2019-04-29T07:31:45.700Z,10.20
2019-04-29T07:34:11.842Z,13.13
2019-04-29T07:36:38.121Z,12.03
2019-04-29T07:39:05.688Z,15.40
2019-04-29T07:41:32.041Z,12.98
2019-04-29T07:43:59.306Z,11.33
2019-04-29T07:46:27.572Z,13.58
2019-04-29T07:49:01.228Z,13.72
2019-04-29T07:51:22.329Z,16.45
2019-04-29T07:53:48.585Z,16.32
2019-04-29T07:56:14.921Z,52.70
2019-04-29T07:58:41.162Z,19.12
2019-04-29T08:01:07.485Z,15.15
2019-04-29T08:03:33.836Z,14.45
2019-04-29T08:06:00.274Z,16.50
2019-04-29T08:08:28.429Z,16.32
2019-04-29T08:10:56.735Z,18.12
2019-04-29T08:13:25.313Z,16.40
2019-04-29T08:15:51.528Z,16.48
2019-04-29T08:18:18.217Z,15.08
2019-04-29T08:20:44.618Z,16.40
2019-04-29T08:23:12.104Z,21.70
2019-04-29T08:25:38.342Z,15.18
2019-04-29T08:28:04.706Z,16.77
2019-04-29T08:30:31.016Z,19.85
2019-04-29T08:32:57.273Z,17.17
2019-04-29T08:35:23.536Z,20.32
2019-04-29T08:37:49.804Z,19.12
2019-04-29T08:40:17.035Z,19.45
2019-04-29T08:42:52.030Z,22.10
2019-04-29T08:45:20.140Z,21.73
2019-04-29T08:47:48.270Z,21.90
2019-04-29T08:50:14.633Z,23.90
2019-04-29T08:52:40.881Z,21.65
2019-04-29T08:55:07.247Z,25.68
2019-04-29T08:57:36.572Z,22.02
2019-04-29T09:00:04.311Z,25.82
2019-04-29T09:02:34.975Z,19.67
2019-04-29T09:04:58.592Z,21.42
2019-04-29T09:07:24.804Z,19.20
2019-04-29T09:09:51.021Z,18.27
2019-04-29T09:12:19.400Z,17.73
2019-04-29T09:14:45.506Z,13.13
2019-04-29T09:17:20.294Z,17.32
2019-04-29T09:19:39.793Z,19.85
2019-04-29T09:22:08.021Z,17.73
2019-04-29T09:24:37.141Z,19.23
2019-04-29T09:27:17.545Z,17.65
2019-04-29T09:29:46.399Z,14.05
2019-04-29T09:32:11.920Z,16.25
2019-04-29T09:34:38.148Z,15.60
2019-04-29T09:37:04.512Z,15.50
2019-04-29T09:39:42.814Z,15.70
2019-04-29T09:42:08.053Z,16.52
2019-04-29T09:47:14.427Z,13.80
2019-04-29T09:49:40.681Z,13.78
2019-04-29T09:52:06.902Z,14.87
2019-04-29T09:54:33.181Z,12.85
2019-04-29T09:56:59.408Z,12.98
2019-04-29T09:59:33.745Z,12.82
2019-04-29T10:02:02.064Z,13.32
2019-04-29T10:04:30.341Z,13.03
2019-04-29T10:06:58.169Z,15.13
2019-04-29T10:09:24.492Z,14.95
2019-04-29T10:11:50.726Z,21.42
2019-04-29T10:14:17.083Z,13.55
2019-04-29T10:16:51.166Z,18.98
2019-04-29T10:19:17.892Z,16.50
2019-04-29T10:21:44.046Z,14.83
2019-04-29T10:24:10.955Z,16.37
2019-04-29T10:26:37.286Z,17.35
2019-04-29T10:29:18.490Z,13.22
2019-04-29T10:31:42.505Z,12.77
2019-04-29T10:34:08.824Z,14.18
2019-04-29T10:36:35.069Z,12.45
2019-04-29T10:39:03.425Z,12.03
2019-04-29T10:44:38.456Z,13.62
2019-04-29T10:47:09.893Z,13.18
2019-04-29T10:49:40.574Z,11.80
2019-04-29T10:52:07.008Z,11.95
2019-04-29T10:54:34.002Z,11.60
2019-04-29T10:57:00.339Z,12.20
2019-04-29T10:59:35.614Z,12.13
2019-04-29T11:02:17.502Z,12.82
2019-04-29T11:04:45.048Z,11.00
2019-04-29T11:07:14.318Z,10.95
2019-04-29T11:09:46.327Z,11.38
2019-04-29T11:12:13.337Z,10.45
2019-04-29T11:14:39.589Z,10.10
2019-04-29T11:17:15.861Z,9.00
2019-04-29T11:19:35.026Z,8.88
2019-04-29T11:22:03.304Z,9.55
2019-04-29T11:24:46.833Z,10.28
2019-04-29T11:27:15.282Z,8.00
2019-04-29T11:29:41.504Z,9.67
2019-04-29T11:32:09.548Z,9.43
2019-04-29T11:34:53.494Z,18.92
2019-04-29T11:37:19.642Z,9.08
2019-04-29T11:39:46.281Z,9.13
2019-04-29T11:42:14.669Z,8.85
2019-04-29T11:44:40.988Z,9.00
2019-04-29T11:47:07.616Z,10.58
2019-04-29T11:49:35.840Z,10.32
2019-04-29T11:52:09.662Z,9.33
2019-04-29T11:54:30.106Z,8.63
2019-04-29T11:56:56.505Z,22.80
2019-04-29T11:59:33.793Z,7.70
2019-04-29T12:02:11.213Z,7.67
2019-04-29T12:04:42.106Z,9.58
2019-04-29T12:07:07.457Z,9.83
2019-04-29T12:09:34.712Z,9.65
2019-04-29T12:12:01.135Z,8.30
2019-04-29T12:14:37.949Z,11.33
2019-04-29T12:17:20.233Z,9.23
2019-04-29T12:19:48.409Z,9.55
2019-04-29T12:22:26.822Z,9.73
2019-04-29T12:24:42.690Z,9.35
2019-04-29T12:27:09.820Z,8.85
2019-04-29T12:29:36.080Z,10.38
2019-04-29T12:32:26.949Z,10.45
2019-04-29T12:34:55.213Z,28.27
2019-04-29T12:37:38.354Z,19.05
2019-04-29T12:40:24.635Z,9.98
2019-04-29T12:42:55.116Z,10.25
2019-04-29T12:45:25.701Z,9.43
2019-04-29T12:47:52.017Z,11.25
2019-04-29T12:50:21.727Z,9.50
2019-04-29T12:52:46.348Z,11.88
2019-04-29T12:55:20.385Z,9.43
2019-04-29T12:57:42.497Z,9.58
2019-04-29T13:00:11.461Z,9.35
2019-04-29T13:02:55.594Z,9.95
2019-04-29T13:05:24.510Z,12.07
2019-04-29T13:07:58.401Z,11.18
2019-04-29T13:10:29.537Z,9.95
2019-04-29T13:12:58.100Z,15.08
2019-04-29T13:15:33.307Z,12.80
2019-04-29T13:18:12.739Z,10.03
2019-04-29T13:20:35.369Z,9.08
2019-04-29T13:23:16.835Z,9.65
2019-04-29T13:25:29.724Z,10.25
2019-04-29T13:28:03.749Z,13.15
2019-04-29T13:30:24.102Z,9.70
2019-04-29T13:32:50.359Z,10.88
2019-04-29T13:35:16.678Z,10.63
2019-04-29T13:37:42.933Z,10.40
2019-04-29T13:40:10.293Z,11.38
2019-04-29T13:42:37.190Z,10.98
2019-04-29T13:45:13.611Z,12.37
2019-04-29T13:47:55.854Z,12.50
2019-04-29T13:50:38.887Z,12.40
2019-04-29T13:52:52.034Z,20.23
2019-04-29T13:55:46.196Z,15.75
2019-04-29T13:57:49.520Z,11.35
2019-04-29T14:00:28.997Z,11.45
2019-04-29T14:03:00.095Z,11.22
2019-04-29T14:05:28.409Z,11.08
2019-04-29T14:07:54.645Z,15.15
2019-04-29T14:10:20.877Z,10.23
2019-04-29T14:12:49.365Z,9.58
2019-04-29T14:15:15.536Z,9.25
2019-04-29T14:17:41.770Z,9.93
2019-04-29T14:20:10.711Z,8.78
2019-04-29T14:22:37.056Z,16.40
2019-04-29T14:25:04.003Z,16.55
2019-04-29T14:27:30.258Z,10.72
2019-04-29T14:29:56.893Z,12.05
2019-04-29T14:32:34.605Z,14.65
2019-04-29T14:34:55.395Z,11.55
2019-04-29T14:37:25.326Z,11.90
2019-04-29T14:39:49.680Z,11.63
2019-04-29T14:42:32.988Z,11.33
2019-04-29T14:45:06.906Z,11.15
2019-04-29T14:47:43.855Z,10.43
2019-04-29T14:50:15.534Z,11.28
2019-04-29T14:52:40.331Z,10.25
2019-04-29T14:55:06.650Z,10.40
2019-04-29T14:57:32.973Z,18.45
2019-04-29T14:59:59.683Z,14.13
2019-04-29T15:02:27.141Z,10.88
2019-04-29T15:04:53.474Z,12.95
2019-04-29T15:07:19.705Z,15.55
2019-04-29T15:09:55.870Z,13.65
2019-04-29T15:12:51.105Z,12.10
2019-04-29T15:15:12.384Z,14.23
2019-04-29T15:17:49.472Z,11.88
2019-04-29T15:20:20.579Z,14.25
2019-04-29T15:22:46.760Z,12.70
2019-04-29T15:25:41.085Z,13.35
2019-04-29T15:28:04.766Z,13.50
2019-04-29T15:30:31.689Z,17.60
2019-04-29T15:32:59.769Z,12.23
2019-04-29T15:35:26.180Z,11.90
2019-04-29T15:37:52.356Z,11.95
2019-04-29T15:40:20.745Z,14.35
2019-04-29T15:42:51.220Z,12.93
2019-04-29T15:45:14.785Z,13.95
2019-04-29T15:47:41.563Z,13.68
2019-04-29T15:50:18.668Z,14.55
2019-04-29T15:52:37.416Z,13.18
2019-04-29T15:55:04.460Z,13.28
2019-04-29T15:57:30.919Z,12.78
2019-04-29T15:59:59.742Z,16.07
2019-04-29T16:02:25.701Z,13.58
2019-04-29T16:05:04.598Z,13.93
2019-04-29T16:07:39.865Z,14.00
2019-04-29T16:10:14.490Z,16.42
2019-04-29T16:12:50.950Z,18.00
2019-04-29T16:15:18.569Z,17.15
2019-04-29T16:17:47.835Z,18.87
2019-04-29T16:20:14.277Z,17.98
2019-04-29T16:22:40.493Z,18.20
2019-04-29T16:25:11.101Z,20.05
2019-04-29T16:27:35.015Z,21.10
2019-04-29T16:30:01.475Z,26.20
2019-04-29T16:32:32.621Z,27.85
2019-04-29T16:34:58.794Z,29.30
2019-04-29T16:37:31.883Z,33.18
2019-04-29T16:39:59.691Z,32.05
2019-04-29T16:42:25.939Z,33.95
2019-04-29T16:44:52.254Z,34.15
2019-04-29T16:47:19.120Z,34.18
2019-04-29T16:49:45.345Z,37.48
2019-04-29T16:52:11.560Z,40.45
2019-04-29T16:54:37.926Z,41.50
2019-04-29T16:57:04.771Z,41.25
2019-04-29T16:59:31.426Z,38.25
2019-04-29T17:01:58.162Z,41.53
2019-04-29T17:04:24.596Z,42.00
2019-04-29T17:07:11.358Z,41.30
2019-04-29T17:09:29.702Z,47.27
2019-04-29T17:11:58.295Z,39.30
2019-04-29T17:14:24.417Z,40.88
2019-04-29T17:16:50.641Z,42.80
2019-04-29T17:19:17.969Z,40.40
2019-04-29T17:21:44.240Z,39.42
2019-04-29T17:24:10.590Z,38.73
2019-04-29T17:26:47.537Z,37.73
2019-04-29T17:29:38.301Z,37.95
2019-04-29T17:32:07.794Z,39.33
2019-04-29T17:34:58.223Z,38.30
2019-04-29T17:37:04.637Z,35.55
2019-04-29T17:39:31.006Z,33.33
2019-04-29T17:41:57.353Z,31.80
2019-04-29T17:44:40.581Z,32.63
2019-04-29T17:47:25.392Z,26.12
2019-04-29T17:49:53.560Z,25.30
2019-04-29T17:52:21.869Z,24.55
2019-04-29T17:54:49.990Z,23.77
2019-04-29T17:57:28.649Z,22.58
2019-04-29T18:00:08.680Z,22.35
2019-04-29T18:02:46.300Z,21.30
2019-04-29T18:05:26.917Z,22.37
2019-04-29T18:07:53.149Z,19.45
2019-04-29T18:10:24.444Z,19.95
2019-04-29T18:12:49.327Z,20.12
2019-04-29T18:15:20.152Z,21.25
2019-04-29T18:20:30.801Z,21.68
2019-04-29T18:22:56.104Z,23.73
2019-04-29T18:25:30.757Z,23.95
2019-04-29T18:27:53.176Z,28.30
2019-04-29T18:30:33.199Z,24.55
2019-04-29T18:35:17.101Z,29.77
2019-04-29T18:37:43.502Z,25.15
2019-04-29T18:40:10.332Z,28.23
2019-04-29T18:42:38.355Z,30.60
2019-04-29T18:45:07.072Z,30.77
2019-04-29T18:47:35.464Z,31.45
2019-04-29T18:50:05.035Z,31.15
2019-04-29T18:52:31.548Z,29.00
2019-04-29T18:54:57.674Z,31.77
2019-04-29T18:57:30.071Z,27.75
2019-04-29T18:59:51.937Z,29.82
2019-04-29T19:02:18.291Z,27.65
2019-04-29T19:04:56.557Z,29.85
2019-04-29T19:07:23.109Z,27.10
2019-04-29T19:09:49.421Z,23.65
2019-04-29T19:12:15.681Z,25.15
2019-04-29T19:14:42.004Z,29.10
2019-04-29T19:17:08.363Z,24.60
2019-04-29T19:19:35.901Z,25.45
2019-04-29T19:22:07.786Z,32.58
2019-04-29T19:24:35.807Z,23.50
2019-04-29T19:27:00.771Z,26.87
2019-04-29T19:29:27.551Z,23.65
2019-04-29T19:31:54.974Z,23.45
2019-04-29T19:34:21.624Z,25.35
2019-04-29T19:36:50.599Z,25.95
2019-04-29T19:39:16.839Z,22.93
2019-04-29T19:41:49.378Z,24.80
2019-04-29T19:44:15.407Z,22.95
2019-04-29T19:46:41.407Z,24.52
2019-04-29T19:49:10.030Z,21.35
2019-04-29T19:51:39.223Z,21.30
2019-04-29T19:54:05.168Z,19.65
2019-04-29T19:56:31.592Z,19.65
2019-04-29T19:58:58.488Z,23.15
2019-04-29T20:01:29.907Z,21.85
2019-04-29T20:04:06.451Z,21.55
2019-04-29T20:06:33.294Z,21.93
2019-04-29T20:09:01.974Z,23.05
2019-04-29T20:11:32.862Z,21.10
2019-04-29T20:14:04.992Z,19.62
2019-04-29T20:16:43.034Z,19.82
2019-04-29T20:19:18.074Z,20.23
2019-04-29T20:21:42.752Z,18.82
2019-04-29T20:24:15.099Z,18.67
2019-04-29T20:26:37.274Z,18.50
2019-04-29T20:29:07.047Z,18.00
2019-04-29T20:31:35.621Z,20.37
2019-04-29T20:34:01.616Z,19.80
2019-04-29T20:36:38.291Z,17.82
2019-04-29T20:38:56.360Z,19.37
2019-04-29T20:41:37.658Z,17.30
2019-04-29T20:43:51.293Z,18.42
2019-04-29T20:46:18.199Z,18.37
2019-04-29T20:48:45.631Z,16.07
2019-04-29T20:51:14.121Z,15.72
2019-04-29T20:53:42.420Z,16.60
2019-04-29T20:56:12.483Z,14.40
2019-04-29T20:58:37.184Z,14.38
2019-04-29T21:01:10.926Z,13.58
2019-04-29T21:06:03.158Z,12.00
2019-04-29T21:08:30.436Z,11.80
2019-04-29T21:10:58.586Z,13.48
2019-04-29T21:13:26.704Z,14.25
2019-04-29T21:16:07.064Z,13.65
2019-04-29T21:18:35.318Z,12.95
2019-04-29T21:21:04.615Z,16.85
2019-04-29T21:23:31.510Z,10.55
2019-04-29T21:26:00.459Z,12.95
2019-04-29T21:28:26.086Z,11.88
2019-04-29T21:30:52.209Z,14.68
2019-04-29T21:33:21.434Z,12.98
2019-04-29T21:35:49.535Z,16.97
2019-04-29T21:41:09.398Z,14.70
2019-04-29T21:43:37.696Z,19.27
2019-04-29T21:46:05.719Z,14.65
2019-04-29T21:48:35.133Z,14.53
2019-04-29T21:51:01.434Z,20.87
2019-04-29T21:53:31.636Z,15.75
2019-04-29T21:55:59.653Z,19.73
2019-04-29T21:58:28.609Z,21.12
2019-04-29T22:00:59.064Z,19.27
2019-04-29T22:03:27.838Z,22.00
2019-04-29T22:08:38.691Z,23.57
2019-04-29T22:11:06.957Z,19.27
2019-04-29T22:13:35.503Z,22.30
2019-04-29T22:16:02.353Z,18.10
2019-04-29T22:18:29.261Z,27.58
2019-04-29T22:20:55.535Z,21.15
2019-04-29T22:23:21.747Z,21.10
2019-04-29T22:25:47.986Z,28.73
2019-04-29T22:28:17.292Z,26.93
2019-04-29T22:30:42.687Z,29.37
2019-04-29T22:33:09.604Z,26.77
2019-04-29T22:35:39.483Z,27.73
2019-04-29T22:38:07.684Z,27.42
2019-04-29T22:40:34.117Z,35.98
2019-04-29T22:43:08.768Z,33.75
2019-04-29T22:45:33.912Z,32.65
2019-04-29T22:48:12.121Z,34.63
2019-04-29T22:50:27.857Z,36.80
2019-04-29T22:52:56.700Z,33.80
2019-04-29T22:55:22.376Z,34.80
2019-04-29T22:57:48.530Z,34.67
2019-04-29T23:00:17.344Z,37.73
2019-04-29T23:02:43.618Z,35.60
2019-04-29T23:05:09.973Z,33.95
2019-04-29T23:07:37.789Z,36.40
2019-04-29T23:10:05.782Z,39.75
2019-04-29T23:12:32.122Z,41.15
2019-04-29T23:14:58.594Z,35.65
2019-04-29T23:17:25.500Z,39.33
2019-04-29T23:19:55.146Z,39.03
2019-04-29T23:22:42.433Z,46.30
2019-04-29T23:25:16.462Z,48.17
2019-04-29T23:27:43.293Z,42.23
2019-04-29T23:30:13.618Z,41.23
2019-04-29T23:32:44.283Z,42.33
2019-04-29T23:35:10.031Z,45.33
2019-04-29T23:37:36.602Z,48.00
2019-04-29T23:40:05.848Z,43.40
2019-04-29T23:42:32.377Z,42.00
2019-04-29T23:44:59.014Z,95.15
2019-04-29T23:47:25.822Z,52.48
2019-04-29T23:49:52.702Z,55.58
2019-04-29T23:52:19.322Z,52.30
2019-04-29T23:54:48.383Z,51.00
2019-04-29T23:57:27.578Z,47.55
